Reykjavik, Iceland

10:13 AM GMT on August 30, 2016 (GMT +0000)
Háaleitisbraut | | Change Station

Elev 0 ft 64.14 °N, 21.89 °W | Updated 6 minutes ago

Overcast
Overcast
54.1 °F
Feels Like 54.1 °F
N
0.6
Wind Variable Wind from NNW
Gusts 1.9 mph

Today
High -- | Low -- °F
--% Chance of Precip.
Yesterday
High -- | Low -- °F
Precip. -- in
Pressure 29.33 in
Visibility 6.2 miles
Clouds Few 2800 ft
Mostly Cloudy 4100 ft
Overcast 4800 ft
Dew Point 48 °F
Humidity 80%
Rainfall Not available.
Snow Depth Not available.
6:05 AM 8:48 PM
Waning Crescent, 4% visible
METAR BIRK 301000Z 08009KT 9999 VCSH FEW028 BKN041 OVC048 12/06 Q0993
Pressure 29.33 in
Visibility 6.2 miles
Clouds Few 2800 ft
Mostly Cloudy 4100 ft
Overcast 4800 ft
Dew Point 48 °F
Humidity 80%
Rainfall Not available.
Snow Depth Not available.
6:05 AM 8:48 PM
Waning Crescent, 4% visible
METAR BIRK 301000Z 08009KT 9999 VCSH FEW028 BKN041 OVC048 12/06 Q0993

10-Day Weather Forecast

×

Almanac

Astronomy

Aug. 30, 2016 Rise Set
Actual Time
Civil Twilight
Nautical Twilight
Astronomical Twilight
Moon
Length of Visible Light
Length of Day
Tomorrow will be .
, % of the Moon is Illuminated

Today's Extremes

Country Highs Country Lows

Community

WunderPhotos

Upload Photos

1,935,809 photos uploaded!

WunderBlog® & News

Nearby

Air Quality

  Air Quality AQ Index Pollutant
Not available.

Snow Depth

Station Depth Elevation

Earthquake Activity

City Distance Mag. Time & Date
Minimum magnitude displayed is 2.5.

Coastal Water Temperatures

Place Temperature

Stations

Nearby Weather Stations

Station Location Temp. Windchill Dew Point Humidity Wind Precip. Elev Updated Type